TimeCDT,TemperatureF,Dew PointF,Humidity,Sea Level PressureIn,VisibilityMPH,Wind Direction,Wind SpeedMPH,Gust SpeedMPH,PrecipitationIn,Events,Conditions,WindDirDegrees,DateUTC
12:15 AM,60.8,59.0,94,29.69,7.0,SW,9.2,-,N/A,Rain-Thunderstorm,Heavy Thunderstorms and Rain,220,2013-05-20 05:15:00
12:35 AM,62.6,60.8,94,29.68,5.0,SW,16.1,26.5,N/A,Rain-Thunderstorm,Heavy Thunderstorms and Rain,220,2013-05-20 05:35:00
12:55 AM,64.4,60.8,88,29.69,10.0,South,6.9,10.4,N/A,Thunderstorm,Overcast,180,2013-05-20 05:55:00
1:15 AM,64.4,60.8,88,29.68,10.0,SSW,3.5,-,N/A,Thunderstorm,Thunderstorm,200,2013-05-20 06:15:00
1:35 AM,68.0,60.8,78,29.69,10.0,North,11.5,16.1,N/A,Thunderstorm,Overcast,360,2013-05-20 06:35:00
1:55 AM,64.4,59.0,83,29.72,10.0,WNW,21.9,31.1,N/A,Thunderstorm,Overcast,290,2013-05-20 06:55:00
2:15 AM,62.6,59.0,88,29.69,5.0,NW,13.8,-,N/A,Rain-Thunderstorm,Heavy Thunderstorms and Rain,320,2013-05-20 07:15:00
2:35 AM,62.6,60.8,94,29.68,10.0,NW,15.0,21.9,N/A,Thunderstorm,Overcast,320,2013-05-20 07:35:00
3:15 AM,60.8,60.8,100,29.71,1.5,WSW,36.8,50.6,N/A,Rain-Thunderstorm,Heavy Thunderstorms and Rain,240,2013-05-20 08:15:00
3:35 AM,64.4,60.8,88,29.69,10.0,West,11.5,-,N/A,Rain-Thunderstorm,Light Thunderstorms and Rain,270,2013-05-20 08:35:00
3:55 AM,64.4,60.8,88,29.69,10.0,Calm,Calm,-,N/A,Thunderstorm,Thunderstorm,0,2013-05-20 08:55:00
4:35 AM,62.6,59.0,88,29.72,10.0,Calm,Calm,-,N/A,Thunderstorm,Overcast,0,2013-05-20 09:35:00
4:55 AM,62.6,59.0,88,29.71,10.0,East,5.8,-,N/A,Thunderstorm,Overcast,100,2013-05-20 09:55:00
5:15 AM,62.6,60.8,94,29.72,10.0,SE,3.5,-,N/A,,Light Drizzle,130,2013-05-20 10:15:00
5:35 AM,62.6,60.8,94,29.72,10.0,East,3.5,-,N/A,,Light Drizzle,100,2013-05-20 10:35:00
5:55 AM,62.6,60.8,94,29.72,10.0,ESE,6.9,-,N/A,,Overcast,120,2013-05-20 10:55:00
6:15 AM,62.6,59.0,88,29.72,10.0,ESE,5.8,-,N/A,,Overcast,110,2013-05-20 11:15:00
6:35 AM,60.8,59.0,94,29.73,10.0,ESE,6.9,-,N/A,,Overcast,120,2013-05-20 11:35:00
7:15 AM,62.6,60.8,94,29.74,10.0,SE,11.5,-,N/A,,Scattered Clouds,140,2013-05-20 12:15:00
7:35 AM,64.4,60.8,88,29.72,10.0,SE,16.1,23.0,N/A,,Clear,140,2013-05-20 12:35:00
7:55 AM,64.4,62.6,94,29.72,10.0,SE,15.0,24.2,N/A,,Clear,140,2013-05-20 12:55:00
8:15 AM,68.0,62.6,83,29.72,10.0,SSE,15.0,20.7,N/A,,Clear,150,2013-05-20 13:15:00
8:35 AM,68.0,64.4,88,29.73,10.0,SSE,13.8,19.6,N/A,,Clear,150,2013-05-20 13:35:00
9:15 AM,69.8,64.4,83,29.73,10.0,SSE,19.6,25.3,N/A,,Clear,160,2013-05-20 14:15:00
9:35 AM,71.6,66.2,83,29.73,10.0,SSE,19.6,25.3,N/A,,Clear,160,2013-05-20 14:35:00
9:55 AM,71.6,68.0,88,29.73,10.0,South,19.6,26.5,N/A,,Clear,170,2013-05-20 14:55:00
10:35 AM,73.4,68.0,83,29.73,10.0,South,16.1,24.2,N/A,,Overcast,170,2013-05-20 15:35:00
10:55 AM,73.4,68.0,83,29.73,10.0,South,16.1,21.9,N/A,,Overcast,180,2013-05-20 15:55:00
11:15 AM,73.4,68.0,83,29.74,10.0,South,15.0,24.2,N/A,,Overcast,170,2013-05-20 16:15:00
11:35 AM,73.4,68.0,83,29.74,7.0,South,13.8,26.5,N/A,,Overcast,180,2013-05-20 16:35:00
11:55 AM,73.4,69.8,88,29.74,7.0,South,15.0,18.4,N/A,,Overcast,170,2013-05-20 16:55:00
12:15 PM,75.2,69.8,83,29.73,7.0,South,17.3,20.7,N/A,,Overcast,170,2013-05-20 17:15:00
12:35 PM,75.2,69.8,83,29.73,7.0,South,13.8,18.4,N/A,,Overcast,170,2013-05-20 17:35:00
12:55 PM,77.0,69.8,78,29.73,7.0,South,10.4,-,N/A,,Overcast,190,2013-05-20 17:55:00
1:15 PM,77.0,69.8,78,29.72,7.0,South,10.4,-,N/A,,Mostly Cloudy,190,2013-05-20 18:15:00
1:55 PM,77.0,69.8,78,29.71,7.0,SSE,17.3,-,N/A,,Mostly Cloudy,160,2013-05-20 18:55:00
2:15 PM,75.2,69.8,83,29.70,7.0,SSE,19.6,-,N/A,,Mostly Cloudy,160,2013-05-20 19:15:00
2:35 PM,77.0,69.8,78,29.70,7.0,SSE,17.3,24.2,N/A,Thunderstorm,Thunderstorm,160,2013-05-20 19:35:00
2:55 PM,78.8,71.6,78,29.68,7.0,South,19.6,-,N/A,,Mostly Cloudy,180,2013-05-20 19:55:00
3:15 PM,75.2,69.8,83,29.67,7.0,South,16.1,25.3,N/A,,Scattered Clouds,170,2013-05-20 20:15:00
3:35 PM,73.4,69.8,88,29.67,7.0,South,6.9,-,N/A,Rain,Light Rain,170,2013-05-20 20:35:00
3:55 PM,73.4,69.8,88,29.69,3.0,South,3.5,-,N/A,Rain-Thunderstorm,Heavy Thunderstorms and Rain,180,2013-05-20 20:55:00
4:15 PM,69.8,62.6,78,29.66,4.0,Calm,Calm,-,N/A,Rain-Thunderstorm,Light Thunderstorms and Rain,0,2013-05-20 21:15:00
4:35 PM,68.0,64.4,88,29.70,0.8,South,5.8,20.7,N/A,Rain-Thunderstorm,Heavy Thunderstorms and Rain,170,2013-05-20 21:35:00
4:55 PM,68.0,64.4,88,29.69,10.0,SW,4.6,-,N/A,Thunderstorm,Scattered Clouds,230,2013-05-20 21:55:00
5:15 PM,68.0,64.4,88,29.74,10.0,South,13.8,19.6,N/A,,Mostly Cloudy,180,2013-05-20 22:15:00
5:35 PM,62.6,59.0,88,29.70,7.0,SSW,23.0,35.7,N/A,Rain-Thunderstorm,Light Thunderstorms and Rain,200,2013-05-20 22:35:00
5:55 PM,64.4,60.8,88,29.67,10.0,SW,11.5,-,N/A,Rain,Light Rain,220,2013-05-20 22:55:00
6:15 PM,64.4,60.8,88,29.67,10.0,WSW,8.1,-,N/A,,Scattered Clouds,240,2013-05-20 23:15:00
6:35 PM,66.2,60.8,83,29.68,10.0,SSW,6.9,-,N/A,,Clear,210,2013-05-20 23:35:00
6:55 PM,66.2,60.8,83,29.69,10.0,South,9.2,-,N/A,,Scattered Clouds,180,2013-05-20 23:55:00
7:15 PM,66.2,60.8,83,29.68,10.0,WSW,3.5,-,N/A,,Mostly Cloudy,240,2013-05-21 00:15:00
7:35 PM,68.0,62.6,83,29.68,10.0,South,6.9,-,N/A,,Scattered Clouds,190,2013-05-21 00:35:00
7:55 PM,66.2,62.6,88,29.69,10.0,ESE,6.9,-,N/A,,Scattered Clouds,120,2013-05-21 00:55:00
8:15 PM,64.4,60.8,88,29.68,10.0,Calm,Calm,-,N/A,,Scattered Clouds,0,2013-05-21 01:15:00
8:35 PM,64.4,60.8,88,29.69,10.0,ESE,5.8,-,N/A,,Clear,110,2013-05-21 01:35:00
9:15 PM,62.6,60.8,94,29.72,10.0,Calm,Calm,-,N/A,,Clear,0,2013-05-21 02:15:00
9:35 PM,62.6,60.8,94,29.73,10.0,South,3.5,-,N/A,,Clear,170,2013-05-21 02:35:00
9:55 PM,62.6,60.8,94,29.74,10.0,Calm,Calm,-,N/A,,Clear,0,2013-05-21 02:55:00
10:15 PM,62.6,60.8,94,29.75,7.0,Calm,Calm,-,N/A,,Clear,0,2013-05-21 03:15:00
10:35 PM,62.6,60.8,94,29.75,10.0,Calm,Calm,-,N/A,,Clear,0,2013-05-21 03:35:00
10:55 PM,62.6,60.8,94,29.75,10.0,WNW,3.5,-,N/A,,Clear,300,2013-05-21 03:55:00
11:15 PM,62.6,60.8,94,29.77,7.0,WSW,3.5,-,N/A,,Clear,250,2013-05-21 04:15:00
11:35 PM,62.6,60.8,94,29.76,7.0,SW,4.6,-,N/A,,Clear,230,2013-05-21 04:35:00
11:55 PM,62.6,60.8,94,29.77,7.0,SSE,4.6,-,N/A,,Clear,150,2013-05-21 04:55:00